Time;durP1;ratioP1;P1;durP2;ratioP2;P2;SDS_P1;SDS_P2;PMS_P1;PMS_P2;Temp;Humidity;BMP_temperature;BMP_pressure;BME280_temperature;BME280_humidity;BME280_pressure;Samples;Min_cycle;Max_cycle;Signal;HPM_P1;HPM_P2
2020/12/27 00:02:20;;;;;;;24.42;4.70;;;22.80;17.10;;;;;;5008560;28;20040;-72
2020/12/27 00:04:47;;;;;;;20.42;6.25;;;22.70;17.60;;;;;;5002334;28;20034;-75
2020/12/27 00:07:14;;;;;;;19.20;4.90;;;22.50;17.80;;;;;;5001724;28;20050;-73
2020/12/27 00:09:43;;;;;;;15.18;3.83;;;22.50;17.80;;;;;;4996886;28;20020;-71
2020/12/27 00:12:11;;;;;;;16.70;4.63;;;22.30;17.90;;;;;;4998570;28;20044;-71
2020/12/27 00:14:37;;;;;;;18.88;4.65;;;22.20;18.00;;;;;;4991105;28;20041;-72
2020/12/27 00:17:06;;;;;;;19.25;5.72;;;22.10;18.20;;;;;;4998745;28;20046;-71
2020/12/27 00:19:32;;;;;;;19.85;7.43;;;21.90;19.30;;;;;;5000348;28;20583;-72
2020/12/27 00:21:59;;;;;;;20.75;8.68;;;21.80;19.90;;;;;;5014617;28;20094;-71
2020/12/27 00:24:26;;;;;;;24.65;9.60;;;21.60;20.20;;;;;;5051887;28;20045;-71
2020/12/27 00:26:52;;;;;;;25.08;9.40;;;21.50;19.70;;;;;;5015167;28;20146;-71
2020/12/27 00:29:19;;;;;;;24.70;7.50;;;21.40;21.10;;;;;;4988297;28;20044;-71
2020/12/27 00:31:49;;;;;;;25.80;8.75;;;21.20;21.80;;;;;;5017543;28;20039;-71
2020/12/27 00:34:17;;;;;;;29.08;6.93;;;20.90;26.80;;;;;;5000541;28;20040;-72
2020/12/27 00:36:44;;;;;;;24.20;7.00;;;20.70;21.70;;;;;;5005801;28;20038;-72
2020/12/27 00:39:11;;;;;;;30.67;6.88;;;21.20;22.10;;;;;;4992087;28;20036;-72
2020/12/27 00:41:37;;;;;;;22.48;6.57;;;20.60;22.20;;;;;;5001286;28;20050;-72
2020/12/27 00:44:04;;;;;;;47.17;7.25;;;20.30;22.30;;;;;;4990797;28;20072;-72
2020/12/27 00:46:31;;;;;;;45.95;7.78;;;19.90;53.20;;;;;;5005062;28;20560;-72
2020/12/27 00:48:58;;;;;;;75.03;9.55;;;20.10;28.40;;;;;;5002912;28;20091;-73
2020/12/27 00:51:26;;;;;;;198.68;22.95;;;20.00;22.60;;;;;;4993423;28;20049;-72
2020/12/27 00:53:54;;;;;;;106.95;14.10;;;19.90;23.00;;;;;;4977917;28;20044;-73
2020/12/27 00:56:21;;;;;;;99.78;11.82;;;19.70;24.20;;;;;;4993504;28;20406;-73
2020/12/27 00:58:48;;;;;;;86.68;10.60;;;19.60;23.80;;;;;;4988555;28;20049;-73
2020/12/27 01:01:15;;;;;;;73.70;9.98;;;19.40;24.90;;;;;;4996999;28;20043;-72
2020/12/27 01:03:44;;;;;;;58.45;9.20;;;19.30;25.20;;;;;;4999574;28;20142;-72
2020/12/27 01:06:11;;;;;;;51.15;8.00;;;19.20;24.80;;;;;;4997610;28;20078;-71
2020/12/27 01:08:38;;;;;;;62.92;9.77;;;19.00;25.30;;;;;;5000392;28;20136;-72
2020/12/27 01:11:06;;;;;;;45.00;9.05;;;18.90;24.90;;;;;;4995692;28;20465;-73
2020/12/27 01:13:33;;;;;;;42.63;9.00;;;18.80;25.50;;;;;;5003191;28;20071;-72
2020/12/27 01:16:00;;;;;;;48.35;8.80;;;18.70;26.60;;;;;;4996769;28;20520;-72
2020/12/27 01:18:26;;;;;;;36.88;8.35;;;18.60;26.40;;;;;;4996618;28;20407;-72
2020/12/27 01:20:53;;;;;;;;;;;18.50;26.70;;;;;;5005770;28;20083;-71
2020/12/27 01:23:19;;;;;;;52.15;10.23;;;18.40;26.90;;;;;;5000071;28;19997;-72
2020/12/27 01:25:47;;;;;;;49.30;10.82;;;18.30;26.90;;;;;;5014795;28;20179;-73
2020/12/27 01:28:13;;;;;;;49.10;12.45;;;18.20;26.70;;;;;;4979303;28;20426;-73
2020/12/27 01:30:39;;;;;;;;;;;18.10;27.50;;;;;;4994710;28;20057;-73
2020/12/27 01:33:06;;;;;;;56.90;10.90;;;17.10;46.40;;;;;;4997584;28;20387;-74
2020/12/27 01:35:32;;;;;;;;;;;17.80;27.90;;;;;;5003012;28;20343;-74
2020/12/27 01:37:59;;;;;;;49.95;12.52;;;17.70;28.60;;;;;;5008773;28;19996;-72
2020/12/27 01:40:26;;;;;;;34.20;11.60;;;17.50;28.90;;;;;;5009490;28;20061;-72
2020/12/27 01:42:59;;;;;;;63.13;14.63;;;17.40;28.80;;;;;;5005577;28;20499;-72
2020/12/27 01:45:26;;;;;;;51.28;13.85;;;17.30;29.70;;;;;;5007598;28;20132;-71
2020/12/27 01:47:53;;;;;;;48.03;13.35;;;17.30;30.00;;;;;;5004105;28;20147;-74
2020/12/27 01:50:21;;;;;;;43.65;13.00;;;17.20;30.40;;;;;;5009556;28;20053;-72
2020/12/27 01:52:47;;;;;;;40.38;13.10;;;17.20;30.50;;;;;;4987053;28;20069;-71
2020/12/27 01:55:15;;;;;;;52.03;16.98;;;17.10;30.60;;;;;;5003152;28;20065;-71
2020/12/27 01:57:47;;;;;;;49.65;14.77;;;17.00;30.20;;;;;;5005312;28;20192;-70
2020/12/27 02:00:15;;;;;;;51.80;15.18;;;16.90;29.80;;;;;;4999942;28;20054;-68
2020/12/27 02:02:42;;;;;;;51.97;19.98;;;16.80;30.90;;;;;;4998832;28;20087;-69
2020/12/27 02:05:10;;;;;;;46.17;15.98;;;16.80;31.00;;;;;;5023432;28;20418;-68
2020/12/27 02:07:36;;;;;;;47.17;14.93;;;16.70;30.50;;;;;;4993519;28;20465;-68
2020/12/27 02:10:03;;;;;;;48.25;14.88;;;16.60;29.90;;;;;;4985420;28;20066;-68
2020/12/27 02:12:30;;;;;;;48.65;14.75;;;16.50;30.10;;;;;;4999068;28;20159;-68
2020/12/27 02:14:57;;;;;;;59.75;15.55;;;16.50;30.90;;;;;;4991884;28;20066;-68
2020/12/27 02:17:23;;;;;;;;;;;16.40;31.20;;;;;;5009412;28;20082;-68
2020/12/27 02:19:49;;;;;;;52.17;15.43;;;16.30;31.40;;;;;;5006885;28;20374;-71
2020/12/27 02:22:15;;;;;;;;;;;16.30;31.60;;;;;;5020094;28;20071;-70
2020/12/27 02:24:42;;;;;;;58.08;18.02;;;16.20;32.20;;;;;;5016355;28;19966;-69
2020/12/27 02:27:10;;;;;;;63.17;18.55;;;16.20;33.00;;;;;;4998407;28;20426;-70
2020/12/27 02:29:37;;;;;;;56.20;18.75;;;16.10;32.60;;;;;;5015785;28;20149;-70
2020/12/27 02:32:04;;;;;;;74.22;23.55;;;16.10;33.60;;;;;;4995318;28;20092;-70
2020/12/27 02:34:30;;;;;;;67.32;29.42;;;16.00;33.50;;;;;;5016466;28;20168;-69
2020/12/27 02:36:57;;;;;;;87.50;37.17;;;16.00;32.70;;;;;;5021582;28;20095;-70
2020/12/27 02:39:24;;;;;;;92.68;40.90;;;15.90;32.30;;;;;;5011610;28;20519;-71
2020/12/27 02:41:51;;;;;;;97.18;41.92;;;15.80;32.20;;;;;;5009273;28;20060;-70
2020/12/27 02:44:19;;;;;;;107.78;45.25;;;15.80;32.70;;;;;;5015448;28;20113;-70
2020/12/27 02:46:45;;;;;;;100.10;44.58;;;15.70;33.10;;;;;;4992559;28;20146;-70
2020/12/27 02:49:12;;;;;;;105.80;48.45;;;15.70;34.10;;;;;;5013654;28;20065;-70
2020/12/27 02:51:39;;;;;;;97.43;45.38;;;15.60;34.80;;;;;;4994341;28;20522;-71
2020/12/27 02:54:06;;;;;;;98.95;46.55;;;15.50;35.20;;;;;;5007256;28;20108;-70
2020/12/27 02:56:32;;;;;;;;;;;15.50;35.10;;;;;;5001969;28;20140;-71
2020/12/27 02:59:00;;;;;;;110.63;49.42;;;15.40;34.70;;;;;;5015179;28;19952;-69
2020/12/27 03:01:27;;;;;;;115.85;50.22;;;15.40;34.00;;;;;;4991542;28;20139;-70
2020/12/27 03:03:54;;;;;;;139.25;54.17;;;15.30;33.70;;;;;;5002450;28;20083;-70
2020/12/27 03:06:20;;;;;;;140.70;54.75;;;15.30;35.00;;;;;;5001360;28;20079;-70
2020/12/27 03:08:56;;;;;;;;;;;15.20;35.40;;;;;;5000507;28;20055;-71
2020/12/27 03:11:26;;;;;;;138.50;60.60;;;15.20;35.40;;;;;;4999585;28;20428;-70
2020/12/27 03:13:55;;;;;;;141.98;61.70;;;15.10;35.40;;;;;;5019884;28;20130;-72
2020/12/27 03:16:22;;;;;;;139.95;58.28;;;15.10;35.40;;;;;;5011429;28;20155;-70
2020/12/27 03:18:50;;;;;;;168.27;68.35;;;15.10;35.40;;;;;;5010316;28;20072;-70
2020/12/27 03:21:17;;;;;;;;;;;15.00;34.60;;;;;;5022940;28;20146;-71
2020/12/27 03:23:44;;;;;;;134.00;60.10;;;14.90;34.80;;;;;;5026682;28;19955;-70
2020/12/27 03:26:10;;;;;;;152.40;66.60;;;14.90;35.30;;;;;;5026368;28;20554;-71
2020/12/27 03:28:36;;;;;;;;;;;14.90;35.30;;;;;;4991000;28;20067;-70
2020/12/27 03:31:03;;;;;;;173.93;68.53;;;14.90;35.70;;;;;;5007997;28;20040;-71
2020/12/27 03:33:30;;;;;;;170.02;68.43;;;14.90;35.90;;;;;;5031240;28;20124;-71
2020/12/27 03:35:57;;;;;;;163.77;67.22;;;14.80;36.20;;;;;;5009106;28;20068;-71
2020/12/27 03:38:24;;;;;;;161.55;69.55;;;14.80;36.40;;;;;;5013498;28;20059;-70
2020/12/27 03:40:51;;;;;;;167.07;68.78;;;14.70;36.40;;;;;;5006850;28;20135;-71
2020/12/27 03:43:18;;;;;;;175.82;68.18;;;14.70;36.40;;;;;;5011038;28;20124;-72
2020/12/27 03:45:44;;;;;;;174.32;66.75;;;14.70;36.80;;;;;;5010265;28;20109;-70
2020/12/27 03:48:10;;;;;;;;;;;14.70;37.30;;;;;;4997823;28;20063;-70
2020/12/27 03:50:39;;;;;;;160.23;68.50;;;14.60;36.80;;;;;;5008080;28;19968;-71
2020/12/27 03:53:05;;;;;;;161.82;69.00;;;14.50;37.10;;;;;;5003603;28;20535;-70
2020/12/27 03:55:32;;;;;;;163.20;70.28;;;14.40;37.70;;;;;;5014698;28;20174;-71
2020/12/27 03:57:59;;;;;;;158.95;70.38;;;14.50;37.40;;;;;;5004961;28;20093;-71
2020/12/27 04:00:29;;;;;;;166.55;68.90;;;14.40;37.40;;;;;;4993378;28;20074;-70
2020/12/27 04:02:56;;;;;;;170.40;66.97;;;14.40;37.90;;;;;;4998782;28;20113;-71
2020/12/27 04:05:22;;;;;;;169.50;68.95;;;14.40;38.30;;;;;;5024894;28;20462;-70
2020/12/27 04:07:49;;;;;;;;;;;14.40;38.10;;;;;;4998190;28;20094;-71
2020/12/27 04:10:16;;;;;;;169.23;68.78;;;14.40;37.70;;;;;;4992387;28;20003;-71
2020/12/27 04:12:42;;;;;;;149.40;68.05;;;14.30;37.90;;;;;;4989908;28;20586;-71
2020/12/27 04:15:10;;;;;;;;;;;14.30;38.50;;;;;;5017078;28;20130;-70
2020/12/27 04:17:36;;;;;;;167.95;70.15;;;14.20;38.30;;;;;;5007978;28;20002;-71
2020/12/27 04:20:04;;;;;;;170.95;72.38;;;14.20;38.10;;;;;;4998491;28;20073;-71
2020/12/27 04:22:31;;;;;;;172.85;78.85;;;14.20;39.20;;;;;;5005350;28;20074;-71
2020/12/27 04:24:57;;;;;;;;;;;14.10;38.60;;;;;;4999309;28;20155;-71
2020/12/27 04:27:24;;;;;;;175.65;74.60;;;14.10;38.50;;;;;;5031541;28;20370;-71
2020/12/27 04:29:50;;;;;;;;;;;14.10;38.60;;;;;;5014688;28;20068;-71
2020/12/27 04:32:16;;;;;;;177.43;81.70;;;14.10;38.20;;;;;;5026134;28;19955;-71
2020/12/27 04:34:42;;;;;;;;;;;14.10;38.80;;;;;;5013320;28;20462;-70
2020/12/27 04:37:09;;;;;;;182.40;84.07;;;14.00;39.00;;;;;;4988753;28;19953;-71
2020/12/27 04:39:35;;;;;;;;;;;14.00;38.30;;;;;;5019834;28;20070;-71
2020/12/27 04:42:02;;;;;;;204.02;81.47;;;13.90;38.50;;;;;;5021098;28;20024;-75
2020/12/27 04:44:30;;;;;;;167.07;79.22;;;13.90;39.00;;;;;;5018879;28;20114;-71
2020/12/27 04:46:57;;;;;;;185.50;81.57;;;13.90;39.20;;;;;;5008690;28;20099;-71
2020/12/27 04:49:24;;;;;;;200.35;82.70;;;13.90;38.80;;;;;;5003321;28;20523;-70
2020/12/27 04:51:53;;;;;;;182.90;78.53;;;13.90;38.80;;;;;;5015021;28;20464;-70
2020/12/27 04:54:26;;;;;;;191.48;84.15;;;13.90;38.80;;;;;;5036181;22;20062;-71
2020/12/27 04:56:53;;;;;;;217.70;86.53;;;13.80;38.40;;;;;;4955211;28;20073;-71
2020/12/27 04:59:19;;;;;;;218.82;87.13;;;13.90;38.10;;;;;;4960991;28;20087;-71
2020/12/27 05:01:45;;;;;;;;;;;13.90;38.30;;;;;;4961859;28;20089;-71
2020/12/27 05:04:18;;;;;;;192.90;84.20;;;13.80;38.90;;;;;;4959156;28;19976;-72
2020/12/27 05:06:45;;;;;;;184.93;80.10;;;13.80;38.00;;;;;;4958325;28;20092;-71
2020/12/27 05:11:37;;;;;;;180.47;74.37;;;13.70;37.50;;;;;;4964674;23;20116;-71
2020/12/27 05:14:06;;;;;;;173.60;70.35;;;13.60;37.20;;;;;;4958581;28;20079;-70
2020/12/27 05:16:33;;;;;;;153.18;58.15;;;13.70;36.90;;;;;;4967229;28;20063;-71
2020/12/27 05:18:59;;;;;;;;;;;13.70;36.30;;;;;;4960837;28;20117;-71
2020/12/27 05:21:26;;;;;;;144.90;50.45;;;13.60;37.10;;;;;;4965503;28;19965;-72
2020/12/27 05:23:54;;;;;;;132.23;49.60;;;13.60;36.40;;;;;;4966337;28;20527;-71
2020/12/27 05:26:28;;;;;;;132.32;46.80;;;13.60;36.00;;;;;;4964014;28;20097;-72
2020/12/27 05:28:55;;;;;;;126.45;44.85;;;13.60;36.00;;;;;;4961597;28;20093;-70
2020/12/27 05:31:21;;;;;;;;;;;13.60;36.00;;;;;;4966871;28;20440;-70
2020/12/27 05:33:47;;;;;;;128.95;44.50;;;13.60;36.40;;;;;;4960942;28;19979;-69
2020/12/27 05:36:15;;;;;;;108.57;42.70;;;13.50;36.20;;;;;;4970222;28;20076;-67
2020/12/27 05:38:45;;;;;;;128.18;43.10;;;13.50;36.10;;;;;;4967317;28;20076;-70
2020/12/27 05:41:14;;;;;;;128.75;41.95;;;13.60;77.80;;;;;;4966987;28;20113;-69
2020/12/27 05:43:40;;;;;;;104.05;42.28;;;12.60;59.30;;;;;;4969216;28;20040;-68
2020/12/27 05:46:07;;;;;;;;;;;;;;;;;;4963860;28;20118;-70
2020/12/27 05:48:34;;;;;;;120.47;43.60;;;13.30;34.70;;;;;;4961667;28;20036;-70
2020/12/27 05:51:04;;;;;;;114.07;44.58;;;13.30;35.10;;;;;;4964896;28;20436;-64
2020/12/27 05:53:34;;;;;;;122.95;44.03;;;13.30;35.50;;;;;;4967571;28;20089;-64
2020/12/27 05:56:01;;;;;;;115.13;46.05;;;13.30;36.10;;;;;;4960497;28;20398;-64
2020/12/27 05:58:28;;;;;;;110.07;44.22;;;13.30;36.00;;;;;;4962408;28;20508;-66
2020/12/27 06:00:56;;;;;;;122.35;46.97;;;13.60;63.80;;;;;;4960857;28;20109;-65
2020/12/27 06:03:29;;;;;;;116.15;45.97;;;12.30;34.60;;;;;;4960476;28;20029;-65
2020/12/27 06:05:56;;;;;;;126.18;48.05;;;13.30;35.60;;;;;;4960420;28;20100;-64
2020/12/27 06:08:28;;;;;;;106.95;45.63;;;13.20;35.90;;;;;;4963746;28;20092;-64
2020/12/27 06:11:12;;;;;;;114.88;43.90;;;13.20;35.70;;;;;;4959036;28;20154;-65
2020/12/27 06:13:58;;;;;;;121.53;44.72;;;13.20;35.80;;;;;;4962732;28;20072;-66
2020/12/27 06:16:49;;;;;;;114.20;44.05;;;13.30;35.40;;;;;;4964164;28;20072;-65
2020/12/27 06:19:24;;;;;;;127.10;44.72;;;13.30;36.10;;;;;;4969196;28;20079;-66
2020/12/27 06:22:05;;;;;;;105.05;44.58;;;13.20;36.50;;;;;;4960886;28;20394;-65
2020/12/27 06:24:32;;;;;;;107.75;43.72;;;;;;;;;;4965094;28;20034;-65
2020/12/27 06:26:59;;;;;;;132.48;45.80;;;13.20;36.40;;;;;;4962320;28;20085;-64
2020/12/27 06:29:46;;;;;;;105.55;41.28;;;12.60;52.60;;;;;;4960151;28;20479;-64
2020/12/27 06:32:16;;;;;;;128.15;44.25;;;;;;;;;;4968423;28;20063;-64
2020/12/27 06:34:43;;;;;;;120.75;42.90;;;13.10;55.10;;;;;;4966048;28;20035;-64
2020/12/27 06:37:09;;;;;;;116.95;41.80;;;12.60;58.90;;;;;;4971781;28;20083;-64
2020/12/27 06:39:36;;;;;;;108.50;44.95;;;;;;;;;;4968568;28;20067;-65
2020/12/27 06:42:28;;;;;;;116.00;44.25;;;13.00;46.90;;;;;;4966919;28;20077;-65
2020/12/27 06:44:55;;;;;;;104.25;42.55;;;13.00;36.70;;;;;;4975449;28;20027;-64
2020/12/27 06:47:41;;;;;;;;;;;13.00;37.20;;;;;;4967004;28;20547;-65
2020/12/27 06:50:15;;;;;;;109.22;43.83;;;12.50;71.50;;;;;;4969120;28;20302;-65
2020/12/27 06:52:42;;;;;;;122.55;45.03;;;13.10;46.00;;;;;;4970376;28;20579;-65
2020/12/27 06:55:09;;;;;;;112.25;46.80;;;13.40;55.30;;;;;;4974111;28;20094;-65
2020/12/27 06:57:44;;;;;;;111.55;43.78;;;13.00;48.90;;;;;;4973122;28;20018;-64
2020/12/27 07:00:27;;;;;;;114.68;46.45;;;12.80;38.50;;;;;;4973688;28;20072;-64
2020/12/27 07:03:19;;;;;;;112.85;45.10;;;12.80;37.40;;;;;;4968976;28;20092;-64
2020/12/27 07:05:47;;;;;;;113.82;46.38;;;12.80;38.10;;;;;;4969847;28;20097;-63
2020/12/27 07:08:42;;;;;;;116.30;48.28;;;12.70;37.60;;;;;;4972686;28;20105;-61
2020/12/27 07:11:10;;;;;;;114.05;46.47;;;12.70;37.90;;;;;;4957471;28;20568;-64
2020/12/27 07:13:45;;;;;;;97.90;43.15;;;12.70;56.80;;;;;;4965857;28;20548;-63
2020/12/27 07:16:14;;;;;;;102.53;41.40;;;12.80;53.30;;;;;;4971472;28;20114;-62
2020/12/27 07:18:41;;;;;;;99.07;40.25;;;;;;;;;;4967871;28;20067;-64
2020/12/27 07:21:13;;;;;;;102.97;39.40;;;12.70;58.90;;;;;;4966041;28;20030;-64
2020/12/27 07:23:48;;;;;;;90.57;36.53;;;12.60;59.30;;;;;;4960296;28;20154;-61
2020/12/27 07:26:15;;;;;;;83.68;35.55;;;12.10;38.10;;;;;;4969248;28;20106;-64
2020/12/27 07:28:44;;;;;;;87.50;33.35;;;12.40;51.50;;;;;;4966889;28;20070;-62
2020/12/27 07:31:18;;;;;;;83.65;32.08;;;12.50;38.70;;;;;;4964194;28;20409;-64
2020/12/27 07:33:46;;;;;;;83.82;27.83;;;12.60;38.90;;;;;;4961679;28;20185;-63
2020/12/27 07:36:13;;;;;;;54.70;22.73;;;12.40;37.30;;;;;;4964620;28;20053;-61
2020/12/27 07:39:00;;;;;;;41.15;19.35;;;12.50;37.90;;;;;;4964928;28;20056;-62
2020/12/27 07:41:42;;;;;;;37.80;16.77;;;12.40;38.00;;;;;;4968352;28;20437;-63
2020/12/27 07:44:13;;;;;;;37.85;14.27;;;12.30;38.10;;;;;;4967903;28;20176;-63
2020/12/27 07:46:41;;;;;;;32.17;14.00;;;12.30;38.40;;;;;;4962000;28;20086;-63
2020/12/27 07:49:12;;;;;;;33.25;13.27;;;12.20;38.50;;;;;;4966871;28;20167;-63
2020/12/27 07:51:40;;;;;;;29.95;12.15;;;13.00;74.00;;;;;;4961865;28;20170;-60
2020/12/27 07:54:13;;;;;;;26.38;10.23;;;12.10;39.30;;;;;;4963414;28;20083;-63
2020/12/27 07:56:43;;;;;;;26.10;9.32;;;12.10;40.00;;;;;;4972882;28;20077;-63
2020/12/27 07:59:09;;;;;;;26.70;10.20;;;12.10;56.30;;;;;;4962951;28;20027;-64
2020/12/27 08:01:36;;;;;;;;;;;12.10;40.30;;;;;;4973273;28;20151;-62
2020/12/27 08:04:05;;;;;;;29.10;10.30;;;12.10;40.40;;;;;;4965785;28;20414;-64
2020/12/27 08:06:34;;;;;;;34.13;10.70;;;12.00;40.60;;;;;;4962719;28;20093;-63
2020/12/27 08:09:14;;;;;;;23.67;9.55;;;11.90;40.80;;;;;;4967176;28;20207;-63
2020/12/27 08:11:42;;;;;;;25.00;10.50;;;11.90;40.80;;;;;;4964307;28;20094;-64
2020/12/27 08:14:13;;;;;;;27.30;10.85;;;11.90;41.30;;;;;;4964117;28;20158;-63
2020/12/27 08:16:42;;;;;;;28.65;10.50;;;12.00;41.10;;;;;;4963031;28;20069;-63
2020/12/27 08:19:20;;;;;;;23.77;10.15;;;12.00;40.80;;;;;;4964206;28;20079;-65
2020/12/27 08:21:59;;;;;;;25.20;9.90;;;12.00;41.10;;;;;;4963867;28;20104;-62
2020/12/27 08:24:26;;;;;;;27.40;10.27;;;11.90;41.10;;;;;;4962782;28;20138;-64
2020/12/27 08:26:52;;;;;;;32.15;9.82;;;11.90;41.60;;;;;;4966328;28;20646;-62
2020/12/27 08:29:23;;;;;;;28.50;9.65;;;11.80;41.90;;;;;;4966724;28;20145;-62
2020/12/27 08:31:54;;;;;;;26.38;10.43;;;11.90;41.80;;;;;;4965073;28;20539;-63
2020/12/27 08:34:22;;;;;;;24.88;10.27;;;11.90;41.90;;;;;;4964603;28;20064;-64
2020/12/27 08:36:50;;;;;;;20.77;9.27;;;11.80;42.40;;;;;;4963659;28;20072;-63
2020/12/27 08:39:35;;;;;;;25.75;10.23;;;11.70;42.30;;;;;;4969670;28;20430;-63
2020/12/27 08:42:03;;;;;;;23.27;9.88;;;11.80;42.80;;;;;;4963962;28;20074;-63
2020/12/27 08:44:45;;;;;;;26.13;10.05;;;11.70;42.90;;;;;;4967649;28;20073;-64
2020/12/27 08:47:35;;;;;;;25.02;10.10;;;11.70;43.00;;;;;;4962837;28;21440;-63
2020/12/27 08:50:13;;;;;;;23.65;10.45;;;11.70;42.90;;;;;;4973467;28;20112;-63
2020/12/27 08:52:40;;;;;;;26.17;10.65;;;11.70;44.10;;;;;;4961487;28;20089;-63
2020/12/27 08:55:12;;;;;;;38.20;11.07;;;11.70;43.90;;;;;;4961906;28;20176;-63
2020/12/27 08:57:42;;;;;;;28.20;10.95;;;11.70;43.90;;;;;;4966230;28;20421;-63
2020/12/27 09:00:13;;;;;;;27.42;11.35;;;11.70;44.00;;;;;;4964986;28;20113;-61
2020/12/27 09:02:42;;;;;;;29.92;11.45;;;11.70;44.50;;;;;;4968147;28;20157;-63
2020/12/27 09:05:12;;;;;;;31.17;11.60;;;11.60;44.40;;;;;;4965593;28;20498;-63
2020/12/27 09:07:42;;;;;;;27.05;12.00;;;11.60;44.20;;;;;;4960266;28;20150;-63
2020/12/27 09:10:23;;;;;;;37.42;11.27;;;11.60;44.50;;;;;;4966742;28;20131;-62
2020/12/27 09:13:01;;;;;;;29.85;12.43;;;11.60;44.70;;;;;;4958644;28;20084;-64
2020/12/27 09:15:32;;;;;;;39.08;11.80;;;11.50;44.90;;;;;;4962088;28;20155;-63
2020/12/27 09:18:06;;;;;;;27.48;11.93;;;11.40;45.20;;;;;;4963108;28;20113;-64
2020/12/27 09:20:34;;;;;;;34.33;11.60;;;11.30;45.40;;;;;;4966758;28;20096;-62
2020/12/27 09:23:10;;;;;;;26.65;11.50;;;11.30;45.00;;;;;;4965043;28;20560;-62
2020/12/27 09:25:37;;;;;;;26.95;12.02;;;11.30;45.50;;;;;;4963757;28;20082;-60
2020/12/27 09:28:13;;;;;;;30.90;12.38;;;11.20;45.70;;;;;;4967764;28;20131;-63
2020/12/27 09:30:40;;;;;;;30.30;11.73;;;11.20;45.70;;;;;;4963989;28;20525;-62
2020/12/27 09:33:07;;;;;;;29.02;12.30;;;11.20;45.80;;;;;;4964300;28;20085;-62
2020/12/27 09:35:39;;;;;;;29.50;12.40;;;11.20;46.00;;;;;;4959930;28;20100;-62
2020/12/27 09:38:22;;;;;;;30.10;11.40;;;11.10;46.90;;;;;;4962236;28;20076;-62
2020/12/27 09:41:15;;;;;;;26.48;11.40;;;11.20;46.50;;;;;;4963612;28;20085;-61
2020/12/27 09:43:58;;;;;;;30.33;12.80;;;11.30;46.60;;;;;;4963075;28;20068;-61
2020/12/27 09:46:55;;;;;;;30.98;12.35;;;11.30;46.60;;;;;;4962225;28;20090;-64
2020/12/27 09:49:23;;;;;;;29.52;11.85;;;11.20;46.80;;;;;;4964435;28;20076;-63
2020/12/27 09:52:06;;;;;;;27.85;12.38;;;11.20;47.10;;;;;;4965799;28;20084;-64
2020/12/27 09:54:34;;;;;;;35.30;12.70;;;11.30;47.00;;;;;;4962492;28;20073;-63
2020/12/27 09:57:12;;;;;;;26.98;13.23;;;11.20;47.30;;;;;;4962886;28;20069;-64
2020/12/27 09:59:39;;;;;;;24.98;12.18;;;11.10;46.80;;;;;;4964409;28;20528;-63
2020/12/27 10:02:07;;;;;;;28.25;12.35;;;11.10;46.50;;;;;;4962615;28;20422;-63
2020/12/27 10:04:33;;;;;;;31.05;12.85;;;11.10;46.00;;;;;;4960598;28;20078;-63
2020/12/27 10:07:00;;;;;;;38.47;13.10;;;11.00;46.20;;;;;;4962154;28;20459;-63
2020/12/27 10:09:27;;;;;;;29.23;13.13;;;11.00;46.40;;;;;;4962853;28;20119;-63
2020/12/27 10:11:53;;;;;;;33.88;14.07;;;11.00;46.80;;;;;;4961709;28;20525;-63
2020/12/27 10:14:20;;;;;;;31.63;13.63;;;10.90;46.80;;;;;;4962026;28;20073;-63
2020/12/27 10:16:47;;;;;;;34.83;13.40;;;10.90;46.70;;;;;;4965527;28;20101;-64
2020/12/27 10:19:14;;;;;;;51.67;14.80;;;10.90;46.70;;;;;;4960866;28;20530;-64
2020/12/27 10:21:40;;;;;;;;;;;10.90;46.90;;;;;;4963431;28;20152;-63
2020/12/27 10:24:06;;;;;;;32.10;13.68;;;10.90;46.90;;;;;;4964581;28;19957;-63
2020/12/27 10:26:32;;;;;;;;;;;10.90;47.10;;;;;;4966013;28;20568;-64
2020/12/27 10:28:59;;;;;;;36.00;14.60;;;10.90;47.20;;;;;;4961947;28;19970;-64
2020/12/27 10:31:25;;;;;;;41.60;15.93;;;10.90;47.30;;;;;;4962411;28;20414;-63
2020/12/27 10:33:52;;;;;;;42.53;15.77;;;10.80;47.30;;;;;;4961325;28;20425;-63
2020/12/27 10:36:18;;;;;;;47.50;18.17;;;10.90;48.00;;;;;;4962500;28;20066;-63
2020/12/27 10:38:44;;;;;;;;;;;10.90;48.50;;;;;;4963171;28;20092;-62
2020/12/27 10:41:11;;;;;;;39.47;18.27;;;10.80;48.00;;;;;;4960387;28;19952;-63
2020/12/27 10:43:37;;;;;;;54.22;19.25;;;10.90;48.20;;;;;;4960166;28;20065;-63
2020/12/27 10:46:05;;;;;;;58.75;21.25;;;10.90;48.70;;;;;;4961893;28;20093;-64
2020/12/27 10:48:34;;;;;;;50.03;19.52;;;10.90;48.90;;;;;;4960285;28;20085;-64
2020/12/27 10:51:02;;;;;;;54.05;20.98;;;10.90;48.90;;;;;;4962104;28;20084;-64
2020/12/27 10:53:28;;;;;;;60.75;19.88;;;10.90;48.60;;;;;;4961767;28;20084;-64
2020/12/27 10:55:55;;;;;;;58.85;20.60;;;11.00;48.90;;;;;;4961010;28;20063;-63
2020/12/27 10:58:21;;;;;;;76.88;22.55;;;10.90;48.60;;;;;;4961982;28;20156;-63
2020/12/27 11:00:48;;;;;;;60.45;22.65;;;10.90;48.80;;;;;;4962640;28;20120;-63
2020/12/27 11:03:15;;;;;;;;;;;10.90;48.80;;;;;;4962564;28;20091;-63
2020/12/27 11:05:41;;;;;;;55.40;21.05;;;10.80;49.60;;;;;;4960130;28;20024;-63
2020/12/27 11:08:08;;;;;;;;;;;10.80;49.60;;;;;;4962479;28;20065;-62
2020/12/27 11:10:35;;;;;;;71.15;25.45;;;10.80;50.10;;;;;;4961178;28;19986;-63
2020/12/27 11:13:01;;;;;;;71.82;27.05;;;10.60;49.90;;;;;;4959735;28;20074;-63
2020/12/27 11:15:32;;;;;;;65.68;27.73;;;10.60;49.80;;;;;;4961214;28;20071;-63
2020/12/27 11:18:00;;;;;;;64.78;26.83;;;10.70;49.40;;;;;;4960835;28;20077;-64
2020/12/27 11:20:27;;;;;;;73.78;28.55;;;10.70;49.20;;;;;;4959564;28;20062;-63
2020/12/27 11:22:56;;;;;;;68.15;28.67;;;10.70;48.90;;;;;;4970537;28;20558;-62
2020/12/27 11:25:23;;;;;;;72.22;30.63;;;10.70;48.90;;;;;;4967368;28;20094;-63
2020/12/27 11:27:49;;;;;;;;;;;10.70;49.10;;;;;;4965275;28;20074;-63
2020/12/27 11:30:15;;;;;;;75.97;29.75;;;10.60;49.60;;;;;;4963708;28;20328;-63
2020/12/27 11:32:42;;;;;;;101.60;31.70;;;10.50;49.20;;;;;;4967045;28;20103;-63
2020/12/27 11:35:08;;;;;;;;;;;10.60;49.10;;;;;;4965739;28;20474;-63
2020/12/27 11:37:34;;;;;;;87.38;33.67;;;10.60;49.20;;;;;;4963303;28;20004;-63
2020/12/27 11:40:01;;;;;;;76.93;35.10;;;10.50;49.80;;;;;;4964241;28;20419;-62
2020/12/27 11:42:28;;;;;;;92.05;34.17;;;10.50;50.70;;;;;;4965404;28;20535;-63
2020/12/27 11:44:54;;;;;;;;;;;10.50;50.00;;;;;;4969032;28;20073;-63
2020/12/27 11:47:21;;;;;;;98.78;33.78;;;10.50;50.20;;;;;;4962677;28;20047;-63
2020/12/27 11:49:48;;;;;;;104.80;38.75;;;10.50;50.00;;;;;;4963799;28;20070;-63
2020/12/27 11:52:14;;;;;;;;;;;10.50;49.40;;;;;;4969088;28;20227;-63
2020/12/27 11:54:40;;;;;;;96.28;40.95;;;10.40;49.10;;;;;;4966042;28;19954;-63
2020/12/27 11:57:06;;;;;;;;;;;10.50;49.10;;;;;;4965921;28;20066;-63
2020/12/27 11:59:35;;;;;;;104.95;41.25;;;10.50;49.00;;;;;;4964311;28;20342;-63
2020/12/27 12:02:02;;;;;;;123.30;47.20;;;10.50;49.20;;;;;;4965445;28;20148;-62
2020/12/27 12:04:28;;;;;;;;;;;10.50;48.90;;;;;;4965037;28;20220;-62
2020/12/27 12:06:55;;;;;;;118.38;45.85;;;10.60;48.90;;;;;;4961541;28;19978;-63
2020/12/27 12:09:21;;;;;;;117.35;48.50;;;10.70;49.30;;;;;;4964636;28;20145;-63
2020/12/27 12:11:50;;;;;;;;;;;10.60;49.40;;;;;;4965251;28;20086;-63
2020/12/27 12:14:17;;;;;;;119.00;50.00;;;10.60;49.40;;;;;;4964111;28;20282;-63
2020/12/27 12:16:43;;;;;;;110.78;47.65;;;10.50;49.10;;;;;;4963180;28;20070;-62
2020/12/27 12:19:10;;;;;;;;;;;10.70;49.90;;;;;;4965822;28;20522;-63
2020/12/27 12:21:36;;;;;;;123.60;45.60;;;10.70;49.10;;;;;;4960360;28;20328;-63
2020/12/27 12:24:03;;;;;;;126.63;47.92;;;10.70;49.20;;;;;;4965403;28;20433;-62
2020/12/27 12:26:31;;;;;;;135.77;47.15;;;10.60;49.50;;;;;;4961297;28;20102;-63
2020/12/27 12:28:59;;;;;;;113.65;46.65;;;10.70;49.30;;;;;;4961177;28;20534;-61
2020/12/27 12:31:27;;;;;;;111.50;43.70;;;10.70;49.60;;;;;;4961761;28;20158;-63
2020/12/27 12:33:54;;;;;;;98.28;43.67;;;10.60;49.40;;;;;;4970857;28;20158;-63
2020/12/27 12:36:24;;;;;;;117.30;45.28;;;10.70;49.20;;;;;;4963639;28;20070;-63
2020/12/27 12:38:52;;;;;;;102.90;43.75;;;10.70;48.70;;;;;;4962605;28;20101;-63
2020/12/27 12:41:26;;;;;;;101.57;43.58;;;10.70;48.30;;;;;;4962193;28;20067;-63
2020/12/27 12:43:53;;;;;;;115.03;45.22;;;10.80;48.80;;;;;;4960223;28;20490;-62
2020/12/27 12:46:23;;;;;;;103.30;41.55;;;10.70;48.50;;;;;;4964405;28;20084;-61
2020/12/27 12:48:53;;;;;;;105.57;42.83;;;10.70;48.80;;;;;;4964820;28;20101;-62
2020/12/27 12:51:23;;;;;;;105.13;42.08;;;10.70;48.80;;;;;;4962378;28;20114;-62